Time;durP1;ratioP1;P1;durP2;ratioP2;P2;SDS_P1;SDS_P2;PMS_P1;PMS_P2;Temp;Humidity;BMP_temperature;BMP_pressure;BME280_temperature;BME280_humidity;BME280_pressure;Samples;Min_cycle;Max_cycle;Signal;HPM_P1;HPM_P2
2023/04/06 00:02:14;;;;;;;2.90;2.80;;;;;;;;;;5037625;28;20056;-94
2023/04/06 00:04:40;;;;;;;3.53;3.33;;;;;;;;;;5036891;28;20064;-93
2023/04/06 00:07:07;;;;;;;2.67;2.58;;;;;;;;;;5037210;28;20046;-93
2023/04/06 00:09:33;;;;;;;5.10;4.80;;;;;;;;;;5018990;28;20057;-93
2023/04/06 00:12:00;;;;;;;3.03;2.92;;;;;;;;;;5017784;28;20097;-93
2023/04/06 00:14:26;;;;;;;3.22;3.05;;;;;;;;;;5017520;28;20041;-92
2023/04/06 00:16:53;;;;;;;3.40;3.17;;;;;;;;;;5017674;28;20054;-93
2023/04/06 00:19:21;;;;;;;4.93;4.53;;;;;;;;;;5017295;28;20054;-93
2023/04/06 00:21:47;;;;;;;5.80;3.38;;;;;;;;;;5017343;28;20512;-93
2023/04/06 00:24:14;;;;;;;5.95;5.53;;;;;;;;;;5017288;28;20041;-94
2023/04/06 00:26:41;;;;;;;3.33;3.10;;;;;;;;;;5017659;28;20053;-94
2023/04/06 00:29:07;;;;;;;4.63;4.43;;;;;;;;;;5017755;28;20465;-92
2023/04/06 00:31:34;;;;;;;5.95;5.50;;;;;;;;;;5016907;28;20050;-94
2023/04/06 00:34:00;;;;;;;3.53;3.33;;;;;;;;;;5016953;28;20050;-94
2023/04/06 00:36:28;;;;;;;4.13;3.88;;;;;;;;;;5039133;28;20049;-93
2023/04/06 00:38:55;;;;;;;3.33;3.20;;;;;;;;;;5056533;28;20515;-93
2023/04/06 00:41:21;;;;;;;2.92;2.83;;;;;;;;;;5056117;28;20409;-93
2023/04/06 00:43:48;;;;;;;3.88;3.75;;;;;;;;;;5055720;28;20413;-93
2023/04/06 00:46:15;;;;;;;3.17;2.95;;;;;;;;;;5055284;28;20048;-92
2023/04/06 00:48:41;;;;;;;5.13;4.65;;;;;;;;;;5056030;28;20056;-92
2023/04/06 00:51:08;;;;;;;4.97;4.78;;;;;;;;;;5055974;28;20165;-93
2023/04/06 00:53:36;;;;;;;3.83;3.63;;;;;;;;;;5056027;28;20045;-92
2023/04/06 00:56:02;;;;;;;2.60;2.50;;;;;;;;;;5055943;28;20049;-93
2023/04/06 00:58:29;;;;;;;2.50;2.05;;;;;;;;;;5049097;28;20520;-93
2023/04/06 01:00:55;;;;;;;3.67;3.47;;;;;;;;;;5036151;28;20416;-93
2023/04/06 01:03:22;;;;;;;2.00;1.90;;;;;;;;;;5030794;28;20050;-93
2023/04/06 01:05:49;;;;;;;2.45;2.35;;;;;;;;;;5015920;28;20061;-92
2023/04/06 01:08:15;;;;;;;3.60;3.45;;;;;;;;;;5015949;28;20508;-93
2023/04/06 01:10:43;;;;;;;2.35;2.05;;;;;;;;;;5015979;28;20409;-93
2023/04/06 01:13:10;;;;;;;3.08;2.88;;;;;;;;;;5016246;28;20054;-93
2023/04/06 01:15:38;;;;;;;2.65;2.45;;;;;;;;;;5015941;28;20050;-93
2023/04/06 01:18:06;;;;;;;3.15;2.95;;;;;;;;;;5015687;28;20078;-93
2023/04/06 01:20:33;;;;;;;4.00;3.80;;;;;;;;;;5016250;28;20073;-92
2023/04/06 01:23:01;;;;;;;5.40;5.10;;;;;;;;;;5015469;28;20050;-92
2023/04/06 01:25:27;;;;;;;2.67;2.58;;;;;;;;;;5015793;28;20053;-92
2023/04/06 01:27:54;;;;;;;4.63;4.43;;;;;;;;;;5015635;28;20057;-92
2023/04/06 01:30:21;;;;;;;3.45;3.25;;;;;;;;;;5016114;28;20613;-93
2023/04/06 01:32:47;;;;;;;3.85;3.67;;;;;;;;;;5017136;28;20050;-93
2023/04/06 01:35:14;;;;;;;2.50;2.40;;;;;;;;;;5016501;28;20050;-93
2023/04/06 01:37:40;;;;;;;4.32;4.03;;;;;;;;;;5015743;28;20112;-92
2023/04/06 01:40:10;;;;;;;3.92;3.72;;;;;;;;;;5015593;28;20054;-92
2023/04/06 01:42:36;;;;;;;3.78;3.58;;;;;;;;;;5015468;28;20137;-92
2023/04/06 01:45:03;;;;;;;4.85;4.55;;;;;;;;;;5015625;28;20445;-92
2023/04/06 01:47:30;;;;;;;3.75;3.58;;;;;;;;;;5015776;28;20057;-92
2023/04/06 01:49:57;;;;;;;3.47;3.20;;;;;;;;;;5015907;28;20073;-92
2023/04/06 01:52:23;;;;;;;3.13;2.88;;;;;;;;;;5015570;28;20056;-93
2023/04/06 01:54:50;;;;;;;3.38;3.17;;;;;;;;;;5015439;28;20050;-93
2023/04/06 01:57:18;;;;;;;3.53;3.33;;;;;;;;;;5015557;28;20057;-93
2023/04/06 01:59:45;;;;;;;4.05;3.85;;;;;;;;;;5015376;28;20049;-92
2023/04/06 02:02:12;;;;;;;4.32;4.13;;;;;;;;;;5015073;28;20046;-93
2023/04/06 02:04:39;;;;;;;3.38;3.28;;;;;;;;;;5015532;28;20418;-92
2023/04/06 02:07:05;;;;;;;2.92;2.72;;;;;;;;;;5015213;28;20054;-93
2023/04/06 02:09:32;;;;;;;3.67;3.53;;;;;;;;;;5014990;28;20053;-93
2023/04/06 02:11:58;;;;;;;4.07;3.85;;;;;;;;;;5015519;28;20052;-93
2023/04/06 02:14:27;;;;;;;5.25;4.95;;;;;;;;;;5015281;28;20104;-93
2023/04/06 02:16:53;;;;;;;4.35;4.15;;;;;;;;;;5015083;28;20049;-92
2023/04/06 02:19:20;;;;;;;4.95;4.75;;;;;;;;;;5015091;28;20710;-92
2023/04/06 02:21:47;;;;;;;3.38;3.28;;;;;;;;;;5015165;28;20057;-91
2023/04/06 02:24:13;;;;;;;2.10;2.00;;;;;;;;;;5015018;28;20046;-92
2023/04/06 02:26:40;;;;;;;4.43;4.22;;;;;;;;;;5015370;28;20058;-93
2023/04/06 02:29:07;;;;;;;4.10;3.90;;;;;;;;;;5015044;28;20062;-92
2023/04/06 02:31:35;;;;;;;5.70;5.32;;;;;;;;;;5014895;28;20128;-92
2023/04/06 02:34:01;;;;;;;3.85;3.55;;;;;;;;;;5020735;28;20053;-92
2023/04/06 02:36:28;;;;;;;2.72;2.63;;;;;;;;;;5034543;28;20493;-93
2023/04/06 02:38:54;;;;;;;3.03;2.92;;;;;;;;;;5035429;28;20049;-92
2023/04/06 02:41:21;;;;;;;5.75;5.30;;;;;;;;;;5034897;28;20389;-92
2023/04/06 02:43:47;;;;;;;4.57;4.35;;;;;;;;;;5034455;28;20049;-93
2023/04/06 02:46:14;;;;;;;4.35;3.95;;;;;;;;;;5034414;28;20049;-92
2023/04/06 02:48:42;;;;;;;3.15;3.03;;;;;;;;;;5034441;28;20095;-93
2023/04/06 02:51:08;;;;;;;4.07;3.78;;;;;;;;;;5034295;28;20052;-93
2023/04/06 02:53:35;;;;;;;5.25;4.97;;;;;;;;;;5034128;28;20053;-92
2023/04/06 02:56:01;;;;;;;4.82;4.60;;;;;;;;;;5034391;28;20135;-94
2023/04/06 02:58:28;;;;;;;4.75;4.55;;;;;;;;;;5034241;28;20057;-93
2023/04/06 03:00:55;;;;;;;4.13;3.92;;;;;;;;;;5014206;28;20046;-93
2023/04/06 03:03:21;;;;;;;3.78;3.58;;;;;;;;;;5014537;28;20050;-92
2023/04/06 03:05:49;;;;;;;3.67;3.47;;;;;;;;;;5014172;28;20072;-93
2023/04/06 03:08:16;;;;;;;3.45;1.98;;;;;;;;;;5016288;28;20057;-94
2023/04/06 03:10:42;;;;;;;4.03;3.83;;;;;;;;;;5017955;28;20053;-92
2023/04/06 03:13:09;;;;;;;3.90;3.70;;;;;;;;;;5017810;28;20045;-92
2023/04/06 03:15:35;;;;;;;3.15;2.95;;;;;;;;;;5018028;28;20050;-93
2023/04/06 03:18:02;;;;;;;2.10;2.00;;;;;;;;;;5017867;28;20414;-93
2023/04/06 03:20:29;;;;;;;4.18;3.97;;;;;;;;;;5018095;28;20058;-92
2023/04/06 03:22:57;;;;;;;3.78;3.58;;;;;;;;;;5017949;28;20053;-92
2023/04/06 03:25:23;;;;;;;2.20;2.10;;;;;;;;;;5017615;28;20476;-92
2023/04/06 03:27:50;;;;;;;4.90;4.70;;;;;;;;;;5017578;28;20050;-93
2023/04/06 03:30:17;;;;;;;3.53;3.33;;;;;;;;;;5017673;28;20108;-92
2023/04/06 03:32:44;;;;;;;3.13;2.67;;;;;;;;;;5017381;28;20054;-92
2023/04/06 03:35:10;;;;;;;4.13;3.78;;;;;;;;;;5017449;28;20107;-92
2023/04/06 03:37:37;;;;;;;4.07;3.78;;;;;;;;;;5017494;28;20426;-92
2023/04/06 03:40:06;;;;;;;3.95;3.65;;;;;;;;;;5017660;28;20064;-92
2023/04/06 03:42:33;;;;;;;3.90;3.58;;;;;;;;;;5017577;28;20088;-94
2023/04/06 03:45:00;;;;;;;3.35;3.08;;;;;;;;;;5017799;28;20081;-94
2023/04/06 03:47:26;;;;;;;2.22;2.13;;;;;;;;;;5018126;28;20490;-93
2023/04/06 03:49:53;;;;;;;4.60;3.38;;;;;;;;;;5018083;28;20054;-93
2023/04/06 03:52:19;;;;;;;3.03;2.92;;;;;;;;;;5017769;28;20050;-95
2023/04/06 03:54:46;;;;;;;4.30;4.10;;;;;;;;;;5025355;28;20096;-93
2023/04/06 03:57:14;;;;;;;2.60;2.50;;;;;;;;;;5037983;28;20049;-93
2023/04/06 03:59:41;;;;;;;3.08;2.95;;;;;;;;;;5037583;28;20456;-93
2023/04/06 04:02:07;;;;;;;4.07;3.88;;;;;;;;;;5037563;28;20076;-93
2023/04/06 04:04:34;;;;;;;3.80;3.60;;;;;;;;;;5037163;28;20441;-93
2023/04/06 04:07:01;;;;;;;2.20;2.10;;;;;;;;;;5037086;28;20406;-94
2023/04/06 04:09:27;;;;;;;3.08;2.97;;;;;;;;;;5032953;28;20477;-93
2023/04/06 04:11:54;;;;;;;2.63;2.53;;;;;;;;;;5017122;28;20552;-94
2023/04/06 04:14:22;;;;;;;3.42;3.22;;;;;;;;;;5017690;28;20046;-93
2023/04/06 04:16:48;;;;;;;2.97;2.78;;;;;;;;;;5017612;28;20054;-94
2023/04/06 04:19:15;;;;;;;3.38;3.28;;;;;;;;;;5017435;28;20050;-93
2023/04/06 04:21:45;;;;;;;2.47;2.38;;;;;;;;;;5017298;28;20081;-93
2023/04/06 04:24:12;;;;;;;2.00;1.90;;;;;;;;;;5017103;28;20046;-94
2023/04/06 04:26:39;;;;;;;3.55;3.35;;;;;;;;;;5017258;28;20057;-93
2023/04/06 04:29:06;;;;;;;3.33;3.20;;;;;;;;;;5017695;28;20395;-93
2023/04/06 04:31:34;;;;;;;3.55;3.35;;;;;;;;;;5017012;28;20057;-93
2023/04/06 04:34:01;;;;;;;2.80;2.60;;;;;;;;;;5017099;28;20057;-93
2023/04/06 04:36:28;;;;;;;2.50;2.40;;;;;;;;;;5017229;28;20513;-93
2023/04/06 04:38:54;;;;;;;3.80;3.60;;;;;;;;;;5016940;28;20049;-93
2023/04/06 04:41:21;;;;;;;3.10;2.90;;;;;;;;;;5016631;28;20645;-93
2023/04/06 04:43:47;;;;;;;2.67;2.55;;;;;;;;;;5016946;28;20387;-94
2023/04/06 04:46:14;;;;;;;3.20;3.00;;;;;;;;;;5016728;28;20062;-92
2023/04/06 04:48:42;;;;;;;2.28;2.08;;;;;;;;;;5016528;28;20054;-93
2023/04/06 04:51:09;;;;;;;3.30;2.58;;;;;;;;;;5039387;28;20053;-93
2023/04/06 04:53:35;;;;;;;3.72;3.42;;;;;;;;;;5036401;28;20068;-93
2023/04/06 04:56:02;;;;;;;3.88;3.67;;;;;;;;;;5036152;28;20057;-93
2023/04/06 04:58:29;;;;;;;3.60;3.13;;;;;;;;;;5036258;28;20053;-93
2023/04/06 05:00:55;;;;;;;3.97;3.67;;;;;;;;;;5036236;28;20050;-93
2023/04/06 05:03:23;;;;;;;3.95;3.75;;;;;;;;;;5036061;28;20064;-93
2023/04/06 05:05:51;;;;;;;3.75;3.55;;;;;;;;;;5029796;28;20042;-93
2023/04/06 05:08:18;;;;;;;3.88;3.67;;;;;;;;;;5028275;28;20050;-93
2023/04/06 05:10:46;;;;;;;4.45;4.25;;;;;;;;;;5024460;28;20223;-92
2023/04/06 05:13:12;;;;;;;3.42;3.30;;;;;;;;;;5016046;28;20056;-93
2023/04/06 05:15:40;;;;;;;3.53;3.35;;;;;;;;;;5015929;28;20049;-93
2023/04/06 05:18:06;;;;;;;3.50;3.30;;;;;;;;;;5016012;28;20050;-93
2023/04/06 05:20:33;;;;;;;4.05;3.65;;;;;;;;;;5015519;28;20521;-92
2023/04/06 05:23:01;;;;;;;2.30;2.17;;;;;;;;;;5015752;28;20050;-94
2023/04/06 05:25:28;;;;;;;2.13;1.92;;;;;;;;;;5015609;28;20060;-93
2023/04/06 05:27:55;;;;;;;3.13;3.00;;;;;;;;;;5017327;28;20603;-92
2023/04/06 05:30:21;;;;;;;2.58;2.42;;;;;;;;;;5015144;28;20053;-91
2023/04/06 05:32:48;;;;;;;5.95;5.70;;;;;;;;;;5017737;28;20049;-93
2023/04/06 05:35:15;;;;;;;3.63;3.42;;;;;;;;;;5022244;28;20052;-94
2023/04/06 05:37:42;;;;;;;2.63;2.42;;;;;;;;;;5035737;28;20492;-93
2023/04/06 05:40:11;;;;;;;2.75;2.65;;;;;;;;;;5035646;28;20045;-93
2023/04/06 05:42:38;;;;;;;2.33;2.20;;;;;;;;;;5035531;28;20053;-93
2023/04/06 05:45:05;;;;;;;2.65;2.55;;;;;;;;;;5036276;28;20052;-93
2023/04/06 05:47:32;;;;;;;2.92;2.80;;;;;;;;;;5038247;28;20053;-95
2023/04/06 05:49:58;;;;;;;2.35;2.25;;;;;;;;;;5038404;28;20056;-95
2023/04/06 05:52:25;;;;;;;3.78;3.53;;;;;;;;;;5037011;28;20053;-95
2023/04/06 05:54:51;;;;;;;4.22;3.22;;;;;;;;;;5034466;28;20061;-95
2023/04/06 05:57:20;;;;;;;3.05;2.95;;;;;;;;;;5042752;28;20045;-95
2023/04/06 05:59:46;;;;;;;5.90;5.40;;;;;;;;;;5046035;28;20059;-94
2023/04/06 06:02:13;;;;;;;3.05;2.90;;;;;;;;;;5016244;28;20050;-93
2023/04/06 06:04:40;;;;;;;4.03;3.67;;;;;;;;;;5015755;28;20101;-95
2023/04/06 06:07:07;;;;;;;4.78;4.45;;;;;;;;;;5016403;28;20050;-94
2023/04/06 06:09:33;;;;;;;4.05;3.75;;;;;;;;;;5015977;28;20057;-94
2023/04/06 06:12:00;;;;;;;5.50;5.20;;;;;;;;;;5015850;28;20049;-95
2023/04/06 06:14:29;;;;;;;3.67;3.47;;;;;;;;;;5016310;28;20049;-94
2023/04/06 06:16:56;;;;;;;3.75;3.55;;;;;;;;;;5016018;28;20136;-95
2023/04/06 06:19:22;;;;;;;4.35;4.05;;;;;;;;;;5015434;28;20049;-94
2023/04/06 06:21:49;;;;;;;5.07;4.78;;;;;;;;;;5031158;28;20068;-94
2023/04/06 06:24:15;;;;;;;2.85;2.72;;;;;;;;;;5035143;28;20501;-93
2023/04/06 06:26:42;;;;;;;4.13;3.92;;;;;;;;;;5019572;28;20078;-94
2023/04/06 06:29:09;;;;;;;3.95;3.75;;;;;;;;;;5015398;28;20569;-94
2023/04/06 06:31:37;;;;;;;6.25;6.03;;;;;;;;;;5015077;28;20061;-93
2023/04/06 06:34:04;;;;;;;6.13;5.72;;;;;;;;;;5018480;28;20041;-93
2023/04/06 06:36:31;;;;;;;3.85;3.65;;;;;;;;;;5035142;28;20050;-95
2023/04/06 06:38:58;;;;;;;5.18;4.88;;;;;;;;;;5035867;28;20049;-94
2023/04/06 06:41:25;;;;;;;4.65;4.45;;;;;;;;;;5025544;28;20053;-94
2023/04/06 06:43:52;;;;;;;3.95;3.80;;;;;;;;;;5018258;28;20078;-94
2023/04/06 06:46:19;;;;;;;5.75;5.45;;;;;;;;;;5018771;28;20046;-93
2023/04/06 06:48:47;;;;;;;4.93;4.68;;;;;;;;;;5018652;28;20064;-93
2023/04/06 06:51:14;;;;;;;5.10;4.90;;;;;;;;;;5018953;28;20125;-94
2023/04/06 06:53:40;;;;;;;6.00;5.70;;;;;;;;;;5019654;28;20092;-95
2023/04/06 06:56:07;;;;;;;5.20;4.88;;;;;;;;;;5019459;28;20061;-95
2023/04/06 06:58:34;;;;;;;4.00;3.80;;;;;;;;;;5018839;28;20057;-94
2023/04/06 07:01:00;;;;;;;3.58;3.42;;;;;;;;;;5018592;28;20494;-94
2023/04/06 07:03:27;;;;;;;4.15;3.95;;;;;;;;;;5018512;28;20049;-94
2023/04/06 07:05:55;;;;;;;5.38;5.10;;;;;;;;;;5024282;28;20076;-95
2023/04/06 07:08:22;;;;;;;4.07;3.88;;;;;;;;;;5038514;28;20053;-94
2023/04/06 07:10:50;;;;;;;5.25;5.05;;;;;;;;;;5038388;28;20049;-95
2023/04/06 07:13:20;;;;;;;4.95;4.65;;;;;;;;;;5037899;28;20045;-94
2023/04/06 07:15:47;;;;;;;6.28;5.85;;;;;;;;;;5033643;28;20453;-95
2023/04/06 07:18:13;;;;;;;5.63;5.32;;;;;;;;;;5036435;28;20052;-95
2023/04/06 07:20:40;;;;;;;5.47;5.15;;;;;;;;;;5037975;28;20060;-94
2023/04/06 07:23:08;;;;;;;6.30;5.82;;;;;;;;;;5038079;28;20057;-94
2023/04/06 07:25:35;;;;;;;7.90;7.40;;;;;;;;;;5037164;28;20060;-93
2023/04/06 07:28:02;;;;;;;5.85;5.55;;;;;;;;;;5038481;28;20049;-93
2023/04/06 07:30:29;;;;;;;3.85;3.65;;;;;;;;;;5037460;28;20057;-95
2023/04/06 07:32:56;;;;;;;5.40;5.15;;;;;;;;;;5037953;28;20049;-94
2023/04/06 07:35:23;;;;;;;5.43;5.03;;;;;;;;;;5038055;28;20394;-94
2023/04/06 07:37:50;;;;;;;5.72;5.40;;;;;;;;;;5038072;28;20439;-94
2023/04/06 07:40:19;;;;;;;5.15;4.85;;;;;;;;;;5038445;28;20049;-94
2023/04/06 07:42:46;;;;;;;5.47;5.13;;;;;;;;;;5037931;28;20088;-94
2023/04/06 07:45:12;;;;;;;6.22;6.03;;;;;;;;;;5038340;28;20045;-93
2023/04/06 07:47:39;;;;;;;5.28;5.07;;;;;;;;;;5037373;28;20516;-94
2023/04/06 07:50:06;;;;;;;6.63;6.28;;;;;;;;;;5022255;28;20062;-95
2023/04/06 07:52:33;;;;;;;9.05;8.73;;;;;;;;;;5018251;28;20479;-95
2023/04/06 07:54:59;;;;;;;6.65;6.35;;;;;;;;;;5023944;28;20045;-94
2023/04/06 07:57:27;;;;;;;6.38;6.07;;;;;;;;;;5019550;28;20149;-94
2023/04/06 07:59:54;;;;;;;4.80;4.50;;;;;;;;;;5034261;28;20049;-94
2023/04/06 08:02:21;;;;;;;6.65;5.72;;;;;;;;;;5018095;28;20048;-94
2023/04/06 08:04:47;;;;;;;5.70;5.40;;;;;;;;;;5020259;28;20050;-94
2023/04/06 08:07:14;;;;;;;7.97;7.53;;;;;;;;;;5033877;28;20057;-95
2023/04/06 08:09:40;;;;;;;6.32;5.93;;;;;;;;;;5037338;28;20054;-95
2023/04/06 08:12:07;;;;;;;4.47;4.28;;;;;;;;;;5018236;28;20409;-94
2023/04/06 08:14:35;;;;;;;11.30;10.68;;;;;;;;;;5017730;28;20387;-94
2023/04/06 08:17:02;;;;;;;5.25;4.88;;;;;;;;;;5017472;28;20053;-94
2023/04/06 08:19:28;;;;;;;6.25;5.82;;;;;;;;;;5017549;28;20050;-93
2023/04/06 08:21:55;;;;;;;5.75;5.30;;;;;;;;;;5017422;28;20050;-93
2023/04/06 08:24:22;;;;;;;5.10;4.80;;;;;;;;;;5028951;28;20089;-94
2023/04/06 08:26:48;;;;;;;5.03;4.82;;;;;;;;;;5036404;28;20080;-94
2023/04/06 08:29:16;;;;;;;5.85;5.45;;;;;;;;;;5036736;28;20064;-94
2023/04/06 08:31:44;;;;;;;5.55;5.25;;;;;;;;;;5021299;28;20042;-93
2023/04/06 08:34:10;;;;;;;5.70;5.40;;;;;;;;;;5031256;28;20037;-94
2023/04/06 08:36:37;;;;;;;6.32;5.97;;;;;;;;;;5017030;28;20080;-93
2023/04/06 08:39:04;;;;;;;4.95;4.75;;;;;;;;;;5036833;28;20056;-94
2023/04/06 08:41:30;;;;;;;5.80;5.50;;;;;;;;;;5024811;28;20038;-94
2023/04/06 08:43:58;;;;;;;4.75;4.45;;;;;;;;;;5049696;28;20053;-94
2023/04/06 08:46:29;;;;;;;5.25;5.05;;;;;;;;;;5029971;28;20041;-94
2023/04/06 08:48:57;;;;;;;5.05;4.75;;;;;;;;;;5036243;28;20417;-95
2023/04/06 08:51:25;;;;;;;4.22;3.92;;;;;;;;;;5036108;28;20053;-94
2023/04/06 08:53:54;;;;;;;6.65;6.30;;;;;;;;;;5035696;28;20136;-93
2023/04/06 08:56:21;;;;;;;4.65;4.45;;;;;;;;;;5036303;28;20417;-92
2023/04/06 08:58:48;;;;;;;6.95;6.65;;;;;;;;;;5035590;28;20045;-94
2023/04/06 09:01:15;;;;;;;5.53;5.32;;;;;;;;;;5048034;28;20049;-95
2023/04/06 09:03:43;;;;;;;6.20;5.80;;;;;;;;;;5049930;28;20056;-95
2023/04/06 09:06:11;;;;;;;7.47;7.18;;;;;;;;;;5035370;28;20405;-94
2023/04/06 09:08:39;;;;;;;9.88;9.48;;;;;;;;;;5036029;28;20057;-94
2023/04/06 09:11:06;;;;;;;7.13;6.72;;;;;;;;;;5035876;28;20052;-95
2023/04/06 09:13:32;;;;;;;10.93;8.90;;;;;;;;;;5036008;28;20052;-93
2023/04/06 09:16:00;;;;;;;7.95;7.60;;;;;;;;;;5035522;28;20053;-95
2023/04/06 09:18:29;;;;;;;8.70;8.30;;;;;;;;;;5015519;28;20556;-94
2023/04/06 09:20:58;;;;;;;7.70;7.30;;;;;;;;;;5015194;28;20064;-94
2023/04/06 09:23:26;;;;;;;7.90;7.35;;;;;;;;;;5015391;28;20061;-94
2023/04/06 09:25:52;;;;;;;10.40;9.93;;;;;;;;;;5015006;28;20053;-94
2023/04/06 09:28:19;;;;;;;7.50;7.20;;;;;;;;;;5015117;28;20053;-93
2023/04/06 09:30:48;;;;;;;6.65;6.35;;;;;;;;;;5015076;28;20061;-94
2023/04/06 09:33:23;;;;;;;19.63;18.70;;;;;;;;;;5015444;28;20494;-93
2023/04/06 09:35:50;;;;;;;6.25;5.95;;;;;;;;;;5015252;28;20072;-93
2023/04/06 09:38:17;;;;;;;7.32;6.95;;;;;;;;;;5015451;28;20054;-93
2023/04/06 09:40:52;;;;;;;7.82;7.43;;;;;;;;;;5015176;28;20064;-95
2023/04/06 09:43:24;;;;;;;7.57;7.28;;;;;;;;;;5032190;28;20130;-94
2023/04/06 09:45:51;;;;;;;6.78;6.38;;;;;;;;;;5034655;28;20056;-94
2023/04/06 09:48:18;;;;;;;6.03;5.72;;;;;;;;;;5034362;28;20056;-94
2023/04/06 09:50:44;;;;;;;9.02;8.52;;;;;;;;;;5034573;28;20417;-94
2023/04/06 09:53:11;;;;;;;5.57;5.35;;;;;;;;;;5018984;28;20042;-94
2023/04/06 09:55:41;;;;;;;6.32;6.03;;;;;;;;;;5014721;28;20053;-94
2023/04/06 09:58:11;;;;;;;7.40;6.93;;;;;;;;;;5014435;28;20045;-94
2023/04/06 10:00:44;;;;;;;6.68;6.28;;;;;;;;;;5014721;28;20074;-94
2023/04/06 10:03:15;;;;;;;7.75;7.40;;;;;;;;;;5014540;28;20050;-94
2023/04/06 10:05:45;;;;;;;5.78;5.57;;;;;;;;;;5015043;28;20057;-93
2023/04/06 10:08:13;;;;;;;11.38;10.82;;;;;;;;;;5015143;28;20418;-95
2023/04/06 10:10:39;;;;;;;7.65;7.20;;;;;;;;;;5015297;28;20054;-94
2023/04/06 10:13:07;;;;;;;8.10;7.45;;;;;;;;;;5015151;28;20049;-94
2023/04/06 10:15:35;;;;;;;7.55;7.25;;;;;;;;;;5015287;28;20049;-95
2023/04/06 10:18:02;;;;;;;9.73;9.32;;;;;;;;;;5015179;28;20421;-94
2023/04/06 10:20:30;;;;;;;9.10;8.73;;;;;;;;;;5015154;28;20046;-94
2023/04/06 10:23:00;;;;;;;6.20;5.88;;;;;;;;;;5027257;28;20072;-93
2023/04/06 10:25:29;;;;;;;5.93;5.72;;;;;;;;;;5034788;28;20433;-95
2023/04/06 10:28:02;;;;;;;7.20;6.90;;;;;;;;;;5046338;28;20052;-94
2023/04/06 10:30:29;;;;;;;8.05;7.45;;;;;;;;;;5055277;28;20052;-95
2023/04/06 10:32:57;;;;;;;9.10;8.55;;;;;;;;;;5043942;28;20063;-95
2023/04/06 10:35:25;;;;;;;6.53;6.22;;;;;;;;;;5034811;28;20052;-94
2023/04/06 10:37:52;;;;;;;7.15;6.85;;;;;;;;;;5036439;28;20053;-94
2023/04/06 10:40:20;;;;;;;7.72;7.38;;;;;;;;;;5034817;28;20060;-94
2023/04/06 10:42:46;;;;;;;7.60;7.30;;;;;;;;;;5034680;28;20053;-94
2023/04/06 10:45:20;;;;;;;6.00;5.80;;;;;;;;;;5029212;28;20049;-95
2023/04/06 10:47:46;;;;;;;5.20;5.00;;;;;;;;;;5014585;28;20054;-94
2023/04/06 10:50:16;;;;;;;7.70;7.38;;;;;;;;;;5014707;28;20053;-94
2023/04/06 10:52:42;;;;;;;6.55;6.22;;;;;;;;;;5014851;28;20077;-96
2023/04/06 10:55:09;;;;;;;6.45;6.20;;;;;;;;;;5014349;28;20042;-95
2023/04/06 10:57:36;;;;;;;7.38;7.07;;;;;;;;;;5014962;28;20100;-96
2023/04/06 11:00:04;;;;;;;7.70;7.30;;;;;;;;;;5014973;28;20049;-94
2023/04/06 11:02:31;;;;;;;9.75;9.25;;;;;;;;;;5020587;28;20046;-94
2023/04/06 11:04:58;;;;;;;7.88;7.57;;;;;;;;;;5034310;28;20067;-95
2023/04/06 11:07:26;;;;;;;8.50;8.00;;;;;;;;;;5031016;28;20053;-95
2023/04/06 11:09:53;;;;;;;8.10;7.57;;;;;;;;;;5035066;28;20084;-94
2023/04/06 11:12:24;;;;;;;11.52;10.93;;;;;;;;;;5029281;28;20057;-94
2023/04/06 11:14:55;;;;;;;8.30;7.90;;;;;;;;;;5036343;28;20037;-94
2023/04/06 11:17:26;;;;;;;6.03;5.63;;;;;;;;;;5054492;28;20053;-93
2023/04/06 11:19:53;;;;;;;5.07;4.88;;;;;;;;;;5054691;28;20079;-94
2023/04/06 11:22:20;;;;;;;5.05;4.78;;;;;;;;;;5054899;28;20052;-93
2023/04/06 11:24:48;;;;;;;8.05;7.55;;;;;;;;;;5054277;28;20057;-94
2023/04/06 11:27:16;;;;;;;6.20;5.90;;;;;;;;;;5054288;28;20052;-93
2023/04/06 11:29:43;;;;;;;7.43;6.93;;;;;;;;;;5056353;28;20056;-94
2023/04/06 11:32:10;;;;;;;9.88;9.27;;;;;;;;;;5058299;28;20118;-95
2023/04/06 11:34:38;;;;;;;7.45;7.15;;;;;;;;;;5058439;28;20041;-95
2023/04/06 11:37:08;;;;;;;6.50;5.97;;;;;;;;;;5058196;28;20044;-94
2023/04/06 11:39:38;;;;;;;6.80;6.50;;;;;;;;;;5060778;28;20059;-94
2023/04/06 11:42:07;;;;;;;7.05;6.70;;;;;;;;;;5038753;28;20149;-94
2023/04/06 11:44:34;;;;;;;9.20;8.85;;;;;;;;;;5019751;28;20053;-93
2023/04/06 11:47:02;;;;;;;10.00;9.40;;;;;;;;;;5020881;28;20290;-94
2023/04/06 11:49:31;;;;;;;8.55;8.15;;;;;;;;;;5019927;28;20605;-93
2023/04/06 11:51:58;;;;;;;21.42;20.60;;;;;;;;;;5020028;28;20141;-94
2023/04/06 11:54:32;;;;;;;18.35;17.65;;;;;;;;;;5020516;28;20057;-94
2023/04/06 11:56:58;;;;;;;8.52;8.13;;;;;;;;;;5020229;28;20045;-94
2023/04/06 11:59:27;;;;;;;8.73;8.10;;;;;;;;;;5020690;28;20045;-93
2023/04/06 12:01:56;;;;;;;7.78;7.45;;;;;;;;;;5020009;28;20042;-93
2023/04/06 12:04:25;;;;;;;11.63;11.10;;;;;;;;;;5020662;28;20116;-94
2023/04/06 12:06:54;;;;;;;9.52;9.13;;;;;;;;;;5020825;28;20074;-94
2023/04/06 12:09:21;;;;;;;6.82;6.53;;;;;;;;;;5018568;28;20049;-94
2023/04/06 12:11:48;;;;;;;7.00;6.68;;;;;;;;;;5018045;28;20109;-94
2023/04/06 12:14:14;;;;;;;8.60;8.20;;;;;;;;;;5017816;28;20049;-93
2023/04/06 12:16:43;;;;;;;9.10;8.70;;;;;;;;;;5018753;28;20058;-93
2023/04/06 12:19:10;;;;;;;9.43;9.02;;;;;;;;;;5018514;28;20141;-95
2023/04/06 12:21:37;;;;;;;19.40;18.60;;;;;;;;;;5017968;28;20492;-92
2023/04/06 12:24:04;;;;;;;7.68;7.28;;;;;;;;;;5017129;28;20093;-95
2023/04/06 12:26:30;;;;;;;9.05;8.45;;;;;;;;;;5018209;28;20058;-94
2023/04/06 12:28:59;;;;;;;6.70;6.30;;;;;;;;;;5016817;28;20079;-95
2023/04/06 12:31:25;;;;;;;8.85;8.45;;;;;;;;;;5016503;28;20046;-93
2023/04/06 12:33:53;;;;;;;6.95;6.65;;;;;;;;;;5016922;28;20180;-94
2023/04/06 12:36:21;;;;;;;9.80;9.40;;;;;;;;;;5016917;28;20514;-92
2023/04/06 12:38:47;;;;;;;7.97;7.50;;;;;;;;;;5036366;28;20060;-93
2023/04/06 12:41:14;;;;;;;8.95;8.55;;;;;;;;;;5036912;28;20061;-93
2023/04/06 12:43:41;;;;;;;6.95;6.65;;;;;;;;;;5036759;28;20053;-94
2023/04/06 12:46:08;;;;;;;11.30;10.80;;;;;;;;;;5036485;28;20049;-93
2023/04/06 12:48:35;;;;;;;8.30;8.00;;;;;;;;;;5037004;28;20049;-93
2023/04/06 12:51:04;;;;;;;8.35;7.82;;;;;;;;;;5036591;28;20081;-94
2023/04/06 12:53:30;;;;;;;8.20;7.43;;;;;;;;;;5036061;28;20057;-93
2023/04/06 12:55:57;;;;;;;8.23;7.82;;;;;;;;;;5036245;28;20053;-95
2023/04/06 12:58:26;;;;;;;8.25;7.95;;;;;;;;;;5036105;28;20060;-94
2023/04/06 13:00:53;;;;;;;7.07;6.78;;;;;;;;;;5026886;28;20113;-96
2023/04/06 13:03:20;;;;;;;8.30;7.93;;;;;;;;;;5026593;28;20072;-94
2023/04/06 13:05:47;;;;;;;7.82;7.38;;;;;;;;;;5031929;28;20060;-94
2023/04/06 13:08:16;;;;;;;8.60;8.20;;;;;;;;;;5017809;28;20075;-93
2023/04/06 13:10:44;;;;;;;9.55;9.10;;;;;;;;;;5027580;28;20041;-94
2023/04/06 13:13:10;;;;;;;12.50;11.93;;;;;;;;;;5035139;28;20408;-94
2023/04/06 13:15:37;;;;;;;9.45;8.90;;;;;;;;;;5024927;28;20105;-94
2023/04/06 13:18:04;;;;;;;11.73;11.23;;;;;;;;;;5027125;28;20433;-94
2023/04/06 13:20:31;;;;;;;8.23;7.82;;;;;;;;;;5016363;28;20077;-94
2023/04/06 13:22:57;;;;;;;6.20;5.95;;;;;;;;;;5029353;28;20060;-94
2023/04/06 13:25:26;;;;;;;6.72;6.43;;;;;;;;;;5023195;28;20061;-93
2023/04/06 13:27:52;;;;;;;6.88;6.57;;;;;;;;;;5035314;28;20049;-92
2023/04/06 13:30:19;;;;;;;7.55;6.95;;;;;;;;;;5021313;28;20069;-93
2023/04/06 13:32:45;;;;;;;7.97;7.57;;;;;;;;;;5029398;28;20045;-94
2023/04/06 13:35:12;;;;;;;5.80;5.60;;;;;;;;;;5031773;28;20052;-93
2023/04/06 13:37:40;;;;;;;4.32;4.13;;;;;;;;;;5027586;28;20046;-93
2023/04/06 13:40:07;;;;;;;6.70;6.40;;;;;;;;;;5030181;28;20056;-93
2023/04/06 13:42:36;;;;;;;9.23;8.73;;;;;;;;;;5023910;28;20045;-94
2023/04/06 13:45:02;;;;;;;6.85;6.55;;;;;;;;;;5022596;28;20050;-92
2023/04/06 13:47:29;;;;;;;6.15;5.80;;;;;;;;;;5031378;28;20046;-94
2023/04/06 13:49:56;;;;;;;7.50;7.20;;;;;;;;;;5015553;28;20054;-93
2023/04/06 13:52:22;;;;;;;6.88;6.57;;;;;;;;;;5015197;28;20054;-95
2023/04/06 13:54:49;;;;;;;9.80;9.30;;;;;;;;;;5025624;28;20398;-94
2023/04/06 13:57:15;;;;;;;7.15;6.85;;;;;;;;;;5021384;28;20045;-95
2023/04/06 13:59:44;;;;;;;6.00;5.60;;;;;;;;;;5031708;28;20079;-95
2023/04/06 14:02:11;;;;;;;6.25;5.95;;;;;;;;;;5020873;28;20103;-95
2023/04/06 14:04:37;;;;;;;8.90;8.50;;;;;;;;;;5026931;28;20058;-94
2023/04/06 14:07:07;;;;;;;6.32;5.93;;;;;;;;;;5028469;28;20152;-92
2023/04/06 14:09:33;;;;;;;4.78;4.57;;;;;;;;;;5018860;28;20058;-95
2023/04/06 14:12:00;;;;;;;6.25;5.95;;;;;;;;;;5031118;28;20053;-94
2023/04/06 14:14:27;;;;;;;6.13;5.82;;;;;;;;;;5022977;28;20489;-95
2023/04/06 14:16:55;;;;;;;8.07;7.68;;;;;;;;;;5029730;28;20041;-95
2023/04/06 14:19:21;;;;;;;7.22;6.93;;;;;;;;;;5016494;28;20085;-95
2023/04/06 14:21:48;;;;;;;9.77;9.20;;;;;;;;;;5016085;28;20054;-95
2023/04/06 14:24:15;;;;;;;7.25;6.85;;;;;;;;;;5015626;28;20056;-94
2023/04/06 14:26:42;;;;;;;6.97;6.57;;;;;;;;;;5015565;28;20066;-94
2023/04/06 14:29:09;;;;;;;9.27;8.80;;;;;;;;;;5015061;28;20057;-94
2023/04/06 14:31:36;;;;;;;5.28;5.07;;;;;;;;;;5015349;28;20111;-94
2023/04/06 14:34:05;;;;;;;6.20;5.90;;;;;;;;;;5015335;28;20057;-94
2023/04/06 14:36:36;;;;;;;7.43;7.00;;;;;;;;;;5031334;28;20046;-93
2023/04/06 14:39:04;;;;;;;6.65;6.35;;;;;;;;;;5034624;28;20133;-95
2023/04/06 14:41:30;;;;;;;8.68;8.27;;;;;;;;;;5034341;28;20050;-95
2023/04/06 14:43:57;;;;;;;6.95;6.55;;;;;;;;;;5018029;28;20045;-94